sensor_id;sensor_type;location;lat;lon;timestamp;P1;durP1;ratioP1;P2;durP2;ratioP2
48014;SDS011;33780;51.034;7.120;2022-07-15T00:00:11;2.25;;;1.10;;
48014;SDS011;33780;51.034;7.120;2022-07-15T00:02:38;2.67;;;1.13;;
48014;SDS011;33780;51.034;7.120;2022-07-15T00:05:04;1.85;;;0.93;;
48014;SDS011;33780;51.034;7.120;2022-07-15T00:07:31;2.70;;;1.45;;
48014;SDS011;33780;51.034;7.120;2022-07-15T00:09:56;1.95;;;1.10;;
48014;SDS011;33780;51.034;7.120;2022-07-15T00:12:44;3.40;;;1.20;;
48014;SDS011;33780;51.034;7.120;2022-07-15T00:15:12;2.88;;;1.20;;
48014;SDS011;33780;51.034;7.120;2022-07-15T00:17:38;2.75;;;1.20;;
48014;SDS011;33780;51.034;7.120;2022-07-15T00:20:04;2.47;;;1.30;;
48014;SDS011;33780;51.034;7.120;2022-07-15T00:22:29;1.75;;;1.10;;
48014;SDS011;33780;51.034;7.120;2022-07-15T00:24:56;2.05;;;1.02;;
48014;SDS011;33780;51.034;7.120;2022-07-15T00:27:21;2.67;;;1.17;;
48014;SDS011;33780;51.034;7.120;2022-07-15T00:29:47;1.55;;;1.00;;
48014;SDS011;33780;51.034;7.120;2022-07-15T00:32:12;2.08;;;1.13;;
48014;SDS011;33780;51.034;7.120;2022-07-15T00:34:37;1.73;;;1.08;;
48014;SDS011;33780;51.034;7.120;2022-07-15T00:37:03;2.88;;;1.20;;
48014;SDS011;33780;51.034;7.120;2022-07-15T00:39:29;2.13;;;1.20;;
48014;SDS011;33780;51.034;7.120;2022-07-15T00:41:54;2.60;;;1.13;;
48014;SDS011;33780;51.034;7.120;2022-07-15T00:44:20;1.90;;;1.15;;
48014;SDS011;33780;51.034;7.120;2022-07-15T00:46:45;1.80;;;1.30;;
48014;SDS011;33780;51.034;7.120;2022-07-15T00:49:11;2.20;;;1.20;;
48014;SDS011;33780;51.034;7.120;2022-07-15T00:51:37;2.30;;;1.10;;
48014;SDS011;33780;51.034;7.120;2022-07-15T00:54:05;2.03;;;1.00;;
48014;SDS011;33780;51.034;7.120;2022-07-15T00:56:37;1.92;;;1.10;;
48014;SDS011;33780;51.034;7.120;2022-07-15T00:59:06;2.42;;;1.00;;
48014;SDS011;33780;51.034;7.120;2022-07-15T01:01:33;2.03;;;1.23;;
48014;SDS011;33780;51.034;7.120;2022-07-15T01:04:03;2.45;;;1.10;;
48014;SDS011;33780;51.034;7.120;2022-07-15T01:06:30;2.50;;;1.10;;
48014;SDS011;33780;51.034;7.120;2022-07-15T01:08:55;4.70;;;1.20;;
48014;SDS011;33780;51.034;7.120;2022-07-15T01:11:20;2.63;;;1.27;;
48014;SDS011;33780;51.034;7.120;2022-07-15T01:13:46;4.10;;;1.30;;
48014;SDS011;33780;51.034;7.120;2022-07-15T01:16:11;2.00;;;1.05;;
48014;SDS011;33780;51.034;7.120;2022-07-15T01:18:37;4.95;;;1.45;;
48014;SDS011;33780;51.034;7.120;2022-07-15T01:21:03;3.90;;;1.40;;
48014;SDS011;33780;51.034;7.120;2022-07-15T01:23:28;1.80;;;1.10;;
48014;SDS011;33780;51.034;7.120;2022-07-15T01:25:53;2.20;;;1.30;;
48014;SDS011;33780;51.034;7.120;2022-07-15T01:28:19;1.55;;;1.08;;
48014;SDS011;33780;51.034;7.120;2022-07-15T01:30:44;3.08;;;1.40;;
48014;SDS011;33780;51.034;7.120;2022-07-15T01:33:10;1.80;;;1.13;;
48014;SDS011;33780;51.034;7.120;2022-07-15T01:35:36;2.20;;;1.05;;
48014;SDS011;33780;51.034;7.120;2022-07-15T01:38:01;3.22;;;1.20;;
48014;SDS011;33780;51.034;7.120;2022-07-15T01:40:26;4.50;;;1.20;;
48014;SDS011;33780;51.034;7.120;2022-07-15T01:42:52;2.17;;;1.17;;
48014;SDS011;33780;51.034;7.120;2022-07-15T01:45:17;3.15;;;1.10;;
48014;SDS011;33780;51.034;7.120;2022-07-15T01:47:46;1.88;;;1.20;;
48014;SDS011;33780;51.034;7.120;2022-07-15T01:50:14;2.38;;;1.17;;
48014;SDS011;33780;51.034;7.120;2022-07-15T01:52:40;1.92;;;1.02;;
48014;SDS011;33780;51.034;7.120;2022-07-15T01:55:06;3.58;;;1.13;;
48014;SDS011;33780;51.034;7.120;2022-07-15T01:57:32;2.13;;;1.20;;
48014;SDS011;33780;51.034;7.120;2022-07-15T01:59:58;3.15;;;1.30;;
48014;SDS011;33780;51.034;7.120;2022-07-15T02:02:23;2.50;;;1.30;;
48014;SDS011;33780;51.034;7.120;2022-07-15T02:04:49;1.60;;;1.08;;
48014;SDS011;33780;51.034;7.120;2022-07-15T02:07:14;5.53;;;1.30;;
48014;SDS011;33780;51.034;7.120;2022-07-15T02:09:40;2.95;;;1.30;;
48014;SDS011;33780;51.034;7.120;2022-07-15T02:12:05;2.22;;;1.08;;
48014;SDS011;33780;51.034;7.120;2022-07-15T02:14:31;5.25;;;1.20;;
48014;SDS011;33780;51.034;7.120;2022-07-15T02:16:57;2.53;;;1.00;;
48014;SDS011;33780;51.034;7.120;2022-07-15T02:19:22;3.40;;;1.13;;
48014;SDS011;33780;51.034;7.120;2022-07-15T02:21:48;1.92;;;1.10;;
48014;SDS011;33780;51.034;7.120;2022-07-15T02:24:13;2.03;;;1.00;;
48014;SDS011;33780;51.034;7.120;2022-07-15T02:26:39;2.45;;;1.20;;
48014;SDS011;33780;51.034;7.120;2022-07-15T02:29:04;2.25;;;1.20;;
48014;SDS011;33780;51.034;7.120;2022-07-15T02:31:30;3.28;;;1.30;;
48014;SDS011;33780;51.034;7.120;2022-07-15T02:33:55;1.80;;;1.10;;
48014;SDS011;33780;51.034;7.120;2022-07-15T02:36:20;2.92;;;1.10;;
48014;SDS011;33780;51.034;7.120;2022-07-15T02:38:46;2.28;;;1.05;;
48014;SDS011;33780;51.034;7.120;2022-07-15T02:41:12;2.17;;;1.15;;
48014;SDS011;33780;51.034;7.120;2022-07-15T02:43:37;2.47;;;1.17;;
48014;SDS011;33780;51.034;7.120;2022-07-15T02:46:03;2.85;;;1.10;;
48014;SDS011;33780;51.034;7.120;2022-07-15T02:48:29;7.28;;;1.30;;
48014;SDS011;33780;51.034;7.120;2022-07-15T02:50:54;2.10;;;1.15;;
48014;SDS011;33780;51.034;7.120;2022-07-15T02:53:20;2.38;;;1.10;;
48014;SDS011;33780;51.034;7.120;2022-07-15T02:55:47;2.65;;;1.30;;
48014;SDS011;33780;51.034;7.120;2022-07-15T02:58:13;2.90;;;1.20;;
48014;SDS011;33780;51.034;7.120;2022-07-15T03:00:38;1.98;;;1.00;;
48014;SDS011;33780;51.034;7.120;2022-07-15T03:03:04;2.42;;;1.23;;
48014;SDS011;33780;51.034;7.120;2022-07-15T03:05:29;2.17;;;1.20;;
48014;SDS011;33780;51.034;7.120;2022-07-15T03:07:54;2.75;;;1.15;;
48014;SDS011;33780;51.034;7.120;2022-07-15T03:10:20;2.30;;;1.20;;
48014;SDS011;33780;51.034;7.120;2022-07-15T03:12:45;2.33;;;1.17;;
48014;SDS011;33780;51.034;7.120;2022-07-15T03:15:10;2.28;;;0.98;;
48014;SDS011;33780;51.034;7.120;2022-07-15T03:17:39;2.03;;;1.20;;
48014;SDS011;33780;51.034;7.120;2022-07-15T03:20:07;2.33;;;1.25;;
48014;SDS011;33780;51.034;7.120;2022-07-15T03:22:36;2.05;;;1.00;;
48014;SDS011;33780;51.034;7.120;2022-07-15T03:25:01;1.88;;;1.10;;
48014;SDS011;33780;51.034;7.120;2022-07-15T03:27:27;2.25;;;1.30;;
48014;SDS011;33780;51.034;7.120;2022-07-15T03:29:52;1.92;;;0.90;;
48014;SDS011;33780;51.034;7.120;2022-07-15T03:32:18;1.90;;;1.00;;
48014;SDS011;33780;51.034;7.120;2022-07-15T03:34:45;2.13;;;1.00;;
48014;SDS011;33780;51.034;7.120;2022-07-15T03:37:11;2.47;;;1.15;;
48014;SDS011;33780;51.034;7.120;2022-07-15T03:39:37;2.72;;;1.35;;
48014;SDS011;33780;51.034;7.120;2022-07-15T03:42:02;2.42;;;1.02;;
48014;SDS011;33780;51.034;7.120;2022-07-15T03:44:28;4.15;;;1.10;;
48014;SDS011;33780;51.034;7.120;2022-07-15T03:46:53;2.33;;;1.30;;
48014;SDS011;33780;51.034;7.120;2022-07-15T03:49:19;1.95;;;1.20;;
48014;SDS011;33780;51.034;7.120;2022-07-15T03:51:44;2.63;;;1.05;;
48014;SDS011;33780;51.034;7.120;2022-07-15T03:54:09;3.10;;;1.33;;
48014;SDS011;33780;51.034;7.120;2022-07-15T03:56:35;2.47;;;1.23;;
48014;SDS011;33780;51.034;7.120;2022-07-15T03:59:01;1.75;;;1.13;;
48014;SDS011;33780;51.034;7.120;2022-07-15T04:01:27;6.13;;;1.30;;
48014;SDS011;33780;51.034;7.120;2022-07-15T04:03:53;2.95;;;1.17;;
48014;SDS011;33780;51.034;7.120;2022-07-15T04:06:19;2.35;;;1.30;;
48014;SDS011;33780;51.034;7.120;2022-07-15T04:08:45;2.25;;;1.05;;
48014;SDS011;33780;51.034;7.120;2022-07-15T04:11:11;3.25;;;1.23;;
48014;SDS011;33780;51.034;7.120;2022-07-15T04:13:37;2.55;;;1.17;;
48014;SDS011;33780;51.034;7.120;2022-07-15T04:16:04;2.78;;;1.20;;
48014;SDS011;33780;51.034;7.120;2022-07-15T04:18:30;3.50;;;1.20;;
48014;SDS011;33780;51.034;7.120;2022-07-15T04:20:57;3.00;;;1.10;;
48014;SDS011;33780;51.034;7.120;2022-07-15T04:23:23;3.30;;;1.17;;
48014;SDS011;33780;51.034;7.120;2022-07-15T04:25:50;2.47;;;1.13;;
48014;SDS011;33780;51.034;7.120;2022-07-15T04:28:17;3.40;;;1.38;;
48014;SDS011;33780;51.034;7.120;2022-07-15T04:30:44;1.88;;;1.05;;
48014;SDS011;33780;51.034;7.120;2022-07-15T04:33:09;4.03;;;1.20;;
48014;SDS011;33780;51.034;7.120;2022-07-15T04:35:34;2.75;;;1.20;;
48014;SDS011;33780;51.034;7.120;2022-07-15T04:38:00;3.65;;;1.27;;
48014;SDS011;33780;51.034;7.120;2022-07-15T04:40:25;3.15;;;1.20;;
48014;SDS011;33780;51.034;7.120;2022-07-15T04:42:50;2.05;;;1.00;;
48014;SDS011;33780;51.034;7.120;2022-07-15T04:45:16;2.25;;;1.20;;
48014;SDS011;33780;51.034;7.120;2022-07-15T04:47:41;2.00;;;1.02;;
48014;SDS011;33780;51.034;7.120;2022-07-15T04:50:07;2.83;;;1.20;;
48014;SDS011;33780;51.034;7.120;2022-07-15T04:52:51;3.25;;;1.17;;
48014;SDS011;33780;51.034;7.120;2022-07-15T04:55:16;2.38;;;1.10;;
48014;SDS011;33780;51.034;7.120;2022-07-15T04:57:41;2.35;;;1.30;;
48014;SDS011;33780;51.034;7.120;2022-07-15T05:00:07;2.47;;;1.13;;
48014;SDS011;33780;51.034;7.120;2022-07-15T05:02:34;1.88;;;0.98;;
48014;SDS011;33780;51.034;7.120;2022-07-15T05:05:00;2.08;;;1.30;;
48014;SDS011;33780;51.034;7.120;2022-07-15T05:07:25;2.33;;;1.02;;
48014;SDS011;33780;51.034;7.120;2022-07-15T05:09:51;2.70;;;1.17;;
48014;SDS011;33780;51.034;7.120;2022-07-15T05:12:16;1.85;;;1.00;;
48014;SDS011;33780;51.034;7.120;2022-07-15T05:14:42;2.33;;;0.93;;
48014;SDS011;33780;51.034;7.120;2022-07-15T05:17:08;2.20;;;1.10;;
48014;SDS011;33780;51.034;7.120;2022-07-15T05:19:33;2.00;;;1.00;;
48014;SDS011;33780;51.034;7.120;2022-07-15T05:21:59;4.10;;;1.25;;
48014;SDS011;33780;51.034;7.120;2022-07-15T05:24:25;2.30;;;1.20;;
48014;SDS011;33780;51.034;7.120;2022-07-15T05:26:51;2.58;;;1.13;;
48014;SDS011;33780;51.034;7.120;2022-07-15T05:29:16;1.92;;;1.02;;
48014;SDS011;33780;51.034;7.120;2022-07-15T05:31:41;3.92;;;1.30;;
48014;SDS011;33780;51.034;7.120;2022-07-15T05:34:07;3.13;;;1.10;;
48014;SDS011;33780;51.034;7.120;2022-07-15T05:36:33;4.35;;;1.40;;
48014;SDS011;33780;51.034;7.120;2022-07-15T05:38:58;4.28;;;1.27;;
48014;SDS011;33780;51.034;7.120;2022-07-15T05:41:23;3.67;;;1.52;;
48014;SDS011;33780;51.034;7.120;2022-07-15T05:43:49;3.63;;;1.25;;
48014;SDS011;33780;51.034;7.120;2022-07-15T05:46:14;4.35;;;1.27;;
48014;SDS011;33780;51.034;7.120;2022-07-15T05:48:39;2.70;;;1.15;;
48014;SDS011;33780;51.034;7.120;2022-07-15T05:51:06;2.53;;;1.02;;
48014;SDS011;33780;51.034;7.120;2022-07-15T05:53:31;3.83;;;1.10;;
48014;SDS011;33780;51.034;7.120;2022-07-15T05:55:57;4.63;;;1.27;;
48014;SDS011;33780;51.034;7.120;2022-07-15T05:58:23;3.00;;;1.33;;
48014;SDS011;33780;51.034;7.120;2022-07-15T06:00:50;2.67;;;1.30;;
48014;SDS011;33780;51.034;7.120;2022-07-15T06:03:16;3.53;;;1.10;;
48014;SDS011;33780;51.034;7.120;2022-07-15T06:05:41;3.83;;;1.20;;
48014;SDS011;33780;51.034;7.120;2022-07-15T06:08:07;3.28;;;1.23;;
48014;SDS011;33780;51.034;7.120;2022-07-15T06:10:33;4.03;;;1.38;;
48014;SDS011;33780;51.034;7.120;2022-07-15T06:12:59;4.40;;;1.30;;
48014;SDS011;33780;51.034;7.120;2022-07-15T06:15:24;2.45;;;1.00;;
48014;SDS011;33780;51.034;7.120;2022-07-15T06:17:49;4.00;;;1.42;;
48014;SDS011;33780;51.034;7.120;2022-07-15T06:20:16;1.90;;;1.10;;
48014;SDS011;33780;51.034;7.120;2022-07-15T06:22:41;2.45;;;1.00;;
48014;SDS011;33780;51.034;7.120;2022-07-15T06:25:07;4.82;;;1.00;;
48014;SDS011;33780;51.034;7.120;2022-07-15T06:27:33;2.85;;;0.85;;
48014;SDS011;33780;51.034;7.120;2022-07-15T06:29:59;7.45;;;1.33;;
48014;SDS011;33780;51.034;7.120;2022-07-15T06:32:25;2.47;;;1.00;;
48014;SDS011;33780;51.034;7.120;2022-07-15T06:34:50;2.95;;;1.05;;
48014;SDS011;33780;51.034;7.120;2022-07-15T06:37:15;6.25;;;1.90;;
48014;SDS011;33780;51.034;7.120;2022-07-15T06:39:42;5.55;;;1.25;;
48014;SDS011;33780;51.034;7.120;2022-07-15T06:42:07;2.97;;;1.10;;
48014;SDS011;33780;51.034;7.120;2022-07-15T06:44:33;5.68;;;1.10;;
48014;SDS011;33780;51.034;7.120;2022-07-15T06:46:59;5.22;;;1.10;;
48014;SDS011;33780;51.034;7.120;2022-07-15T06:49:25;1.95;;;0.90;;
48014;SDS011;33780;51.034;7.120;2022-07-15T06:51:50;3.70;;;1.00;;
48014;SDS011;33780;51.034;7.120;2022-07-15T06:54:16;3.08;;;0.90;;
48014;SDS011;33780;51.034;7.120;2022-07-15T06:56:43;3.65;;;1.42;;
48014;SDS011;33780;51.034;7.120;2022-07-15T06:59:09;2.80;;;1.02;;
48014;SDS011;33780;51.034;7.120;2022-07-15T07:01:34;4.70;;;1.17;;
48014;SDS011;33780;51.034;7.120;2022-07-15T07:03:59;4.22;;;1.00;;
48014;SDS011;33780;51.034;7.120;2022-07-15T07:06:24;4.72;;;1.00;;
48014;SDS011;33780;51.034;7.120;2022-07-15T07:08:51;2.80;;;1.00;;
48014;SDS011;33780;51.034;7.120;2022-07-15T07:11:17;3.70;;;0.98;;
48014;SDS011;33780;51.034;7.120;2022-07-15T07:13:43;3.13;;;0.85;;
48014;SDS011;33780;51.034;7.120;2022-07-15T07:16:08;2.55;;;0.80;;
48014;SDS011;33780;51.034;7.120;2022-07-15T07:18:34;1.77;;;0.80;;
48014;SDS011;33780;51.034;7.120;2022-07-15T07:20:59;2.72;;;0.80;;
48014;SDS011;33780;51.034;7.120;2022-07-15T07:23:24;2.85;;;0.65;;
48014;SDS011;33780;51.034;7.120;2022-07-15T07:25:54;1.48;;;0.60;;
48014;SDS011;33780;51.034;7.120;2022-07-15T07:28:20;1.60;;;0.60;;
48014;SDS011;33780;51.034;7.120;2022-07-15T07:30:46;1.80;;;0.65;;
48014;SDS011;33780;51.034;7.120;2022-07-15T07:33:12;4.55;;;0.70;;
48014;SDS011;33780;51.034;7.120;2022-07-15T07:35:37;1.60;;;0.63;;
48014;SDS011;33780;51.034;7.120;2022-07-15T07:38:03;2.55;;;0.65;;
48014;SDS011;33780;51.034;7.120;2022-07-15T07:40:29;1.88;;;0.50;;
48014;SDS011;33780;51.034;7.120;2022-07-15T07:42:54;2.20;;;0.60;;
48014;SDS011;33780;51.034;7.120;2022-07-15T07:45:21;2.08;;;0.60;;
48014;SDS011;33780;51.034;7.120;2022-07-15T07:47:47;4.25;;;0.63;;
48014;SDS011;33780;51.034;7.120;2022-07-15T07:50:12;1.85;;;0.60;;
48014;SDS011;33780;51.034;7.120;2022-07-15T07:52:38;2.65;;;0.55;;
48014;SDS011;33780;51.034;7.120;2022-07-15T07:55:03;5.72;;;0.52;;
48014;SDS011;33780;51.034;7.120;2022-07-15T07:57:29;3.75;;;0.68;;
48014;SDS011;33780;51.034;7.120;2022-07-15T07:59:55;2.17;;;0.43;;
48014;SDS011;33780;51.034;7.120;2022-07-15T08:02:20;2.97;;;0.60;;
48014;SDS011;33780;51.034;7.120;2022-07-15T08:04:45;2.65;;;0.60;;
48014;SDS011;33780;51.034;7.120;2022-07-15T08:07:11;1.70;;;0.40;;
48014;SDS011;33780;51.034;7.120;2022-07-15T08:09:36;4.40;;;0.60;;
48014;SDS011;33780;51.034;7.120;2022-07-15T08:12:02;3.78;;;0.40;;
48014;SDS011;33780;51.034;7.120;2022-07-15T08:14:28;2.42;;;0.75;;
48014;SDS011;33780;51.034;7.120;2022-07-15T08:16:53;1.13;;;0.40;;
48014;SDS011;33780;51.034;7.120;2022-07-15T08:19:19;2.00;;;0.50;;
48014;SDS011;33780;51.034;7.120;2022-07-15T08:21:45;3.35;;;0.65;;
48014;SDS011;33780;51.034;7.120;2022-07-15T08:24:11;2.55;;;0.70;;
48014;SDS011;33780;51.034;7.120;2022-07-15T08:26:37;2.42;;;0.70;;
48014;SDS011;33780;51.034;7.120;2022-07-15T08:29:03;2.33;;;0.60;;
48014;SDS011;33780;51.034;7.120;2022-07-15T08:31:28;1.33;;;0.60;;
48014;SDS011;33780;51.034;7.120;2022-07-15T08:33:53;2.58;;;0.70;;
48014;SDS011;33780;51.034;7.120;2022-07-15T08:36:19;2.67;;;0.80;;
48014;SDS011;33780;51.034;7.120;2022-07-15T08:38:45;1.48;;;0.70;;
48014;SDS011;33780;51.034;7.120;2022-07-15T08:41:13;4.05;;;0.60;;
48014;SDS011;33780;51.034;7.120;2022-07-15T08:43:40;3.25;;;0.82;;
48014;SDS011;33780;51.034;7.120;2022-07-15T08:46:06;2.28;;;0.70;;
48014;SDS011;33780;51.034;7.120;2022-07-15T08:48:35;2.70;;;0.50;;
48014;SDS011;33780;51.034;7.120;2022-07-15T08:51:02;1.88;;;0.60;;
48014;SDS011;33780;51.034;7.120;2022-07-15T08:53:29;2.72;;;0.60;;
48014;SDS011;33780;51.034;7.120;2022-07-15T08:55:56;2.40;;;0.60;;
48014;SDS011;33780;51.034;7.120;2022-07-15T08:58:22;1.70;;;0.60;;
48014;SDS011;33780;51.034;7.120;2022-07-15T09:00:47;2.85;;;0.68;;
48014;SDS011;33780;51.034;7.120;2022-07-15T09:03:14;2.33;;;0.70;;
48014;SDS011;33780;51.034;7.120;2022-07-15T09:05:39;2.83;;;0.70;;
48014;SDS011;33780;51.034;7.120;2022-07-15T09:08:06;2.70;;;0.60;;
48014;SDS011;33780;51.034;7.120;2022-07-15T09:13:08;2.10;;;0.80;;
48014;SDS011;33780;51.034;7.120;2022-07-15T09:15:37;3.00;;;0.68;;
48014;SDS011;33780;51.034;7.120;2022-07-15T09:18:04;1.55;;;0.60;;
48014;SDS011;33780;51.034;7.120;2022-07-15T09:20:33;2.58;;;0.68;;
48014;SDS011;33780;51.034;7.120;2022-07-15T09:23:00;1.65;;;0.70;;
48014;SDS011;33780;51.034;7.120;2022-07-15T09:25:27;3.00;;;0.63;;
48014;SDS011;33780;51.034;7.120;2022-07-15T09:27:53;1.75;;;0.60;;
48014;SDS011;33780;51.034;7.120;2022-07-15T09:30:37;3.95;;;0.60;;
48014;SDS011;33780;51.034;7.120;2022-07-15T09:33:27;6.05;;;1.65;;
48014;SDS011;33780;51.034;7.120;2022-07-15T09:36:17;2.20;;;0.50;;
48014;SDS011;33780;51.034;7.120;2022-07-15T09:38:52;1.27;;;0.52;;
48014;SDS011;33780;51.034;7.120;2022-07-15T09:41:27;1.27;;;0.70;;
48014;SDS011;33780;51.034;7.120;2022-07-15T09:46:29;2.55;;;0.90;;
48014;SDS011;33780;51.034;7.120;2022-07-15T09:49:16;5.93;;;0.90;;
48014;SDS011;33780;51.034;7.120;2022-07-15T09:54:22;1.70;;;0.83;;
48014;SDS011;33780;51.034;7.120;2022-07-15T09:56:49;2.60;;;0.75;;
48014;SDS011;33780;51.034;7.120;2022-07-15T09:59:16;3.42;;;1.10;;
48014;SDS011;33780;51.034;7.120;2022-07-15T10:01:42;3.47;;;1.15;;
48014;SDS011;33780;51.034;7.120;2022-07-15T10:04:08;3.35;;;1.30;;
48014;SDS011;33780;51.034;7.120;2022-07-15T10:06:34;3.60;;;1.50;;
48014;SDS011;33780;51.034;7.120;2022-07-15T10:09:03;2.83;;;1.30;;
48014;SDS011;33780;51.034;7.120;2022-07-15T10:11:29;2.83;;;1.33;;
48014;SDS011;33780;51.034;7.120;2022-07-15T10:22:32;3.13;;;1.30;;
48014;SDS011;33780;51.034;7.120;2022-07-15T10:25:18;2.35;;;1.20;;
48014;SDS011;33780;51.034;7.120;2022-07-15T10:27:54;2.75;;;1.10;;
48014;SDS011;33780;51.034;7.120;2022-07-15T10:30:28;3.42;;;1.05;;
48014;SDS011;33780;51.034;7.120;2022-07-15T10:35:34;2.85;;;1.20;;
48014;SDS011;33780;51.034;7.120;2022-07-15T10:41:16;2.28;;;1.25;;
48014;SDS011;33780;51.034;7.120;2022-07-15T10:43:53;2.97;;;1.30;;
48014;SDS011;33780;51.034;7.120;2022-07-15T10:46:20;3.17;;;1.20;;
48014;SDS011;33780;51.034;7.120;2022-07-15T10:48:47;3.10;;;1.60;;
48014;SDS011;33780;51.034;7.120;2022-07-15T10:51:12;2.78;;;1.30;;
48014;SDS011;33780;51.034;7.120;2022-07-15T10:53:58;3.28;;;1.40;;
48014;SDS011;33780;51.034;7.120;2022-07-15T10:56:34;2.28;;;1.50;;
48014;SDS011;33780;51.034;7.120;2022-07-15T10:59:21;4.25;;;1.90;;
48014;SDS011;33780;51.034;7.120;2022-07-15T11:04:21;3.75;;;1.80;;
48014;SDS011;33780;51.034;7.120;2022-07-15T11:09:48;2.67;;;1.35;;
48014;SDS011;33780;51.034;7.120;2022-07-15T11:19:56;3.08;;;1.70;;
48014;SDS011;33780;51.034;7.120;2022-07-15T11:22:24;3.25;;;1.50;;
48014;SDS011;33780;51.034;7.120;2022-07-15T11:24:51;2.80;;;1.67;;
48014;SDS011;33780;51.034;7.120;2022-07-15T11:27:18;2.50;;;1.33;;
48014;SDS011;33780;51.034;7.120;2022-07-15T11:32:18;2.75;;;1.50;;
48014;SDS011;33780;51.034;7.120;2022-07-15T11:34:49;2.72;;;1.20;;
48014;SDS011;33780;51.034;7.120;2022-07-15T11:37:17;3.05;;;1.80;;
48014;SDS011;33780;51.034;7.120;2022-07-15T11:39:46;3.35;;;1.50;;
48014;SDS011;33780;51.034;7.120;2022-07-15T11:42:19;3.50;;;1.40;;
48014;SDS011;33780;51.034;7.120;2022-07-15T11:45:08;2.03;;;1.50;;
48014;SDS011;33780;51.034;7.120;2022-07-15T11:47:34;6.00;;;1.55;;
48014;SDS011;33780;51.034;7.120;2022-07-15T11:50:01;4.07;;;1.42;;
48014;SDS011;33780;51.034;7.120;2022-07-15T11:52:29;2.85;;;1.30;;
48014;SDS011;33780;51.034;7.120;2022-07-15T11:54:55;2.75;;;1.30;;
48014;SDS011;33780;51.034;7.120;2022-07-15T11:57:21;2.30;;;1.25;;
48014;SDS011;33780;51.034;7.120;2022-07-15T11:59:56;4.13;;;1.45;;
48014;SDS011;33780;51.034;7.120;2022-07-15T12:02:24;2.63;;;1.10;;
48014;SDS011;33780;51.034;7.120;2022-07-15T12:04:50;2.70;;;1.10;;
48014;SDS011;33780;51.034;7.120;2022-07-15T12:07:17;4.75;;;1.20;;
48014;SDS011;33780;51.034;7.120;2022-07-15T12:09:43;2.67;;;1.20;;
48014;SDS011;33780;51.034;7.120;2022-07-15T12:12:13;1.70;;;1.08;;
48014;SDS011;33780;51.034;7.120;2022-07-15T12:14:40;2.28;;;1.02;;
48014;SDS011;33780;51.034;7.120;2022-07-15T12:17:07;2.85;;;1.20;;
48014;SDS011;33780;51.034;7.120;2022-07-15T12:19:34;3.38;;;1.75;;
48014;SDS011;33780;51.034;7.120;2022-07-15T12:22:04;2.53;;;1.20;;
48014;SDS011;33780;51.034;7.120;2022-07-15T12:24:45;3.42;;;1.00;;
48014;SDS011;33780;51.034;7.120;2022-07-15T12:27:15;3.45;;;1.10;;
48014;SDS011;33780;51.034;7.120;2022-07-15T12:29:41;2.70;;;1.10;;
48014;SDS011;33780;51.034;7.120;2022-07-15T12:42:30;1.55;;;0.80;;
48014;SDS011;33780;51.034;7.120;2022-07-15T12:51:23;1.80;;;0.88;;
48014;SDS011;33780;51.034;7.120;2022-07-15T12:53:19;2.15;;;0.82;;
48014;SDS011;33780;51.034;7.120;2022-07-15T12:55:46;1.70;;;0.90;;
48014;SDS011;33780;51.034;7.120;2022-07-15T12:58:15;3.33;;;0.93;;
48014;SDS011;33780;51.034;7.120;2022-07-15T13:00:42;2.47;;;1.08;;
48014;SDS011;33780;51.034;7.120;2022-07-15T13:03:22;1.75;;;0.88;;
48014;SDS011;33780;51.034;7.120;2022-07-15T13:05:49;2.00;;;1.10;;
48014;SDS011;33780;51.034;7.120;2022-07-15T13:08:16;1.40;;;0.85;;
48014;SDS011;33780;51.034;7.120;2022-07-15T13:10:46;1.98;;;0.90;;
48014;SDS011;33780;51.034;7.120;2022-07-15T13:13:13;2.83;;;0.93;;
48014;SDS011;33780;51.034;7.120;2022-07-15T13:15:41;1.92;;;0.90;;
48014;SDS011;33780;51.034;7.120;2022-07-15T13:18:07;2.45;;;0.90;;
48014;SDS011;33780;51.034;7.120;2022-07-15T13:20:35;2.72;;;0.90;;
48014;SDS011;33780;51.034;7.120;2022-07-15T13:23:01;2.13;;;0.80;;
48014;SDS011;33780;51.034;7.120;2022-07-15T13:25:28;1.60;;;0.70;;
48014;SDS011;33780;51.034;7.120;2022-07-15T13:27:54;1.60;;;0.88;;
48014;SDS011;33780;51.034;7.120;2022-07-15T13:30:19;1.20;;;0.65;;
48014;SDS011;33780;51.034;7.120;2022-07-15T13:32:45;2.58;;;0.73;;
48014;SDS011;33780;51.034;7.120;2022-07-15T13:35:11;1.23;;;0.73;;
48014;SDS011;33780;51.034;7.120;2022-07-15T13:37:37;2.17;;;0.70;;
48014;SDS011;33780;51.034;7.120;2022-07-15T13:40:04;2.15;;;0.70;;
48014;SDS011;33780;51.034;7.120;2022-07-15T13:42:31;1.65;;;0.70;;
48014;SDS011;33780;51.034;7.120;2022-07-15T13:44:58;1.50;;;0.77;;
48014;SDS011;33780;51.034;7.120;2022-07-15T13:47:24;2.00;;;0.77;;
48014;SDS011;33780;51.034;7.120;2022-07-15T13:49:50;2.53;;;0.73;;
48014;SDS011;33780;51.034;7.120;2022-07-15T13:52:38;1.92;;;0.80;;
48014;SDS011;33780;51.034;7.120;2022-07-15T13:55:06;1.92;;;0.60;;
48014;SDS011;33780;51.034;7.120;2022-07-15T13:57:32;2.55;;;1.17;;
48014;SDS011;33780;51.034;7.120;2022-07-15T13:59:57;1.60;;;0.50;;
48014;SDS011;33780;51.034;7.120;2022-07-15T14:02:22;1.25;;;0.77;;
48014;SDS011;33780;51.034;7.120;2022-07-15T14:04:47;2.15;;;0.80;;
48014;SDS011;33780;51.034;7.120;2022-07-15T14:07:13;2.95;;;0.70;;
48014;SDS011;33780;51.034;7.120;2022-07-15T14:09:38;2.15;;;0.73;;
48014;SDS011;33780;51.034;7.120;2022-07-15T14:12:03;2.75;;;0.70;;
48014;SDS011;33780;51.034;7.120;2022-07-15T14:14:29;2.95;;;0.70;;
48014;SDS011;33780;51.034;7.120;2022-07-15T14:16:54;1.00;;;0.60;;
48014;SDS011;33780;51.034;7.120;2022-07-15T14:19:20;2.42;;;0.70;;
48014;SDS011;33780;51.034;7.120;2022-07-15T14:21:45;2.15;;;0.70;;
48014;SDS011;33780;51.034;7.120;2022-07-15T14:24:10;1.30;;;0.80;;
48014;SDS011;33780;51.034;7.120;2022-07-15T14:26:36;1.50;;;0.68;;
48014;SDS011;33780;51.034;7.120;2022-07-15T14:29:02;2.95;;;0.60;;
48014;SDS011;33780;51.034;7.120;2022-07-15T14:31:28;1.23;;;0.70;;
48014;SDS011;33780;51.034;7.120;2022-07-15T14:33:53;1.08;;;0.60;;
48014;SDS011;33780;51.034;7.120;2022-07-15T14:36:19;1.25;;;0.60;;
48014;SDS011;33780;51.034;7.120;2022-07-15T14:38:44;4.45;;;0.85;;
48014;SDS011;33780;51.034;7.120;2022-07-15T14:41:09;1.27;;;0.65;;
48014;SDS011;33780;51.034;7.120;2022-07-15T14:43:35;1.63;;;0.65;;
48014;SDS011;33780;51.034;7.120;2022-07-15T14:46:00;2.05;;;0.82;;
48014;SDS011;33780;51.034;7.120;2022-07-15T14:48:26;2.00;;;0.70;;
48014;SDS011;33780;51.034;7.120;2022-07-15T14:50:54;1.88;;;0.63;;
48014;SDS011;33780;51.034;7.120;2022-07-15T14:53:20;1.50;;;0.60;;
48014;SDS011;33780;51.034;7.120;2022-07-15T14:55:45;1.65;;;0.70;;
48014;SDS011;33780;51.034;7.120;2022-07-15T14:58:11;2.10;;;0.60;;
48014;SDS011;33780;51.034;7.120;2022-07-15T15:00:38;2.08;;;0.68;;
48014;SDS011;33780;51.034;7.120;2022-07-15T15:03:07;4.97;;;0.80;;
48014;SDS011;33780;51.034;7.120;2022-07-15T15:05:33;1.58;;;0.63;;
48014;SDS011;33780;51.034;7.120;2022-07-15T15:07:58;2.13;;;0.57;;
48014;SDS011;33780;51.034;7.120;2022-07-15T15:10:23;4.00;;;0.60;;
48014;SDS011;33780;51.034;7.120;2022-07-15T15:12:49;1.45;;;0.60;;
48014;SDS011;33780;51.034;7.120;2022-07-15T15:15:14;1.55;;;0.65;;
48014;SDS011;33780;51.034;7.120;2022-07-15T15:17:43;1.05;;;0.50;;
48014;SDS011;33780;51.034;7.120;2022-07-15T15:20:09;1.38;;;0.50;;
48014;SDS011;33780;51.034;7.120;2022-07-15T15:22:44;2.08;;;0.40;;
48014;SDS011;33780;51.034;7.120;2022-07-15T15:25:09;1.10;;;0.50;;
48014;SDS011;33780;51.034;7.120;2022-07-15T15:27:35;1.55;;;0.57;;
48014;SDS011;33780;51.034;7.120;2022-07-15T15:30:01;2.05;;;0.52;;
48014;SDS011;33780;51.034;7.120;2022-07-15T15:32:31;1.90;;;0.60;;
48014;SDS011;33780;51.034;7.120;2022-07-15T15:34:56;1.73;;;0.47;;
48014;SDS011;33780;51.034;7.120;2022-07-15T15:37:21;1.92;;;0.50;;
48014;SDS011;33780;51.034;7.120;2022-07-15T15:39:47;3.03;;;0.50;;